createdAt,value
2022-08-01T00:06:54.266Z,99
2022-08-01T00:16:53.994Z,99
2022-08-01T00:26:53.674Z,99
2022-08-01T00:36:53.688Z,99
2022-08-01T00:46:53.762Z,99
2022-08-01T00:56:53.743Z,99
2022-08-01T01:06:53.708Z,99
2022-08-01T01:16:53.745Z,99
2022-08-01T01:26:53.737Z,99
2022-08-01T01:36:53.824Z,99
2022-08-01T01:46:53.811Z,99
2022-08-01T01:56:53.815Z,99
2022-08-01T02:06:54.122Z,99
2022-08-01T02:16:53.893Z,99
2022-08-01T02:26:54.129Z,99
2022-08-01T02:36:54.122Z,99
2022-08-01T02:46:54.058Z,99
2022-08-01T02:56:54.005Z,99
2022-08-01T03:06:53.976Z,99
2022-08-01T03:16:53.924Z,99
2022-08-01T03:26:53.958Z,99
2022-08-01T03:35:33.316Z,99
2022-08-01T03:36:53.955Z,99
2022-08-01T03:46:54.025Z,99
2022-08-01T03:56:54.285Z,99
2022-08-01T04:06:54.229Z,99
2022-08-01T04:16:54.133Z,99
2022-08-01T04:26:54.036Z,99
2022-08-01T04:31:26.239Z,99
2022-08-01T04:36:54.186Z,99
2022-08-01T04:46:54.057Z,99
2022-08-01T04:56:54.310Z,99
2022-08-01T05:06:54.107Z,99
2022-08-01T05:16:54.320Z,99
2022-08-01T05:26:54.114Z,99
2022-08-01T05:36:57.046Z,99
2022-08-01T05:46:55.604Z,99
2022-08-01T05:56:56.236Z,99
2022-08-01T06:06:56.619Z,99
2022-08-01T06:16:56.465Z,99
2022-08-01T06:26:56.310Z,99
2022-08-01T06:36:56.311Z,99
2022-08-01T06:46:56.334Z,99
2022-08-01T06:56:56.393Z,99
2022-08-01T07:06:56.553Z,99
2022-08-01T07:16:56.432Z,99
2022-08-01T07:26:56.461Z,99
2022-08-01T07:36:56.461Z,99
2022-08-01T07:46:57.029Z,99
2022-08-01T07:56:56.447Z,99
2022-08-01T08:06:56.470Z,99
2022-08-01T08:16:56.503Z,99
2022-08-01T08:26:57.076Z,99
2022-08-01T08:36:57.124Z,99
2022-08-01T08:48:11.429Z,99
2022-08-01T08:56:57.243Z,99
2022-08-01T09:06:57.452Z,99
2022-08-01T09:16:57.476Z,99
2022-08-01T09:26:57.449Z,99
2022-08-01T09:36:57.498Z,99
2022-08-01T09:46:57.563Z,99
2022-08-01T09:56:59.831Z,99
2022-08-01T10:06:57.561Z,99
2022-08-01T10:17:01.513Z,99
2022-08-01T10:26:57.756Z,99
2022-08-01T10:36:57.600Z,99
2022-08-01T10:46:57.627Z,99
2022-08-01T10:56:57.944Z,99
2022-08-01T11:06:58.035Z,99
2022-08-01T11:16:58.251Z,99
2022-08-01T11:26:57.986Z,99
2022-08-01T11:36:59.395Z,98
2022-08-01T11:46:58.032Z,97
2022-08-01T11:56:58.027Z,96
2022-08-01T12:06:57.981Z,97
2022-08-01T12:16:58.042Z,99
2022-08-01T12:26:58.359Z,99
2022-08-01T12:36:58.555Z,99
2022-08-01T12:46:58.575Z,99
2022-08-01T12:56:58.621Z,98
2022-08-01T13:07:56.588Z,98
2022-08-01T13:16:58.612Z,99
2022-08-01T13:26:58.924Z,99
2022-08-01T13:36:59.189Z,99
2022-08-01T13:47:00.039Z,99
2022-08-01T13:56:59.873Z,99
2022-08-01T14:07:09.749Z,99
2022-08-01T14:17:03.066Z,99
2022-08-01T14:26:59.996Z,95
2022-08-01T14:37:00.398Z,95
2022-08-01T14:45:29.287Z,95
2022-08-01T14:46:59.895Z,97
2022-08-01T14:57:00.811Z,97
2022-08-01T15:07:00.594Z,96
2022-08-01T15:17:00.595Z,96
2022-08-01T15:27:00.947Z,96
2022-08-01T15:37:00.632Z,95
2022-08-01T15:47:00.684Z,93
2022-08-01T15:57:00.671Z,92
2022-08-01T16:07:00.980Z,92
2022-08-01T16:17:00.717Z,91
2022-08-01T16:27:00.809Z,93
2022-08-01T16:37:00.798Z,95
2022-08-01T16:47:00.767Z,96
2022-08-01T16:57:07.575Z,97
2022-08-01T17:07:01.233Z,97
2022-08-01T17:17:00.957Z,98
2022-08-01T17:27:01.157Z,98
2022-08-01T17:37:01.069Z,99
2022-08-01T17:47:01.088Z,99
2022-08-01T17:57:01.252Z,99
2022-08-01T18:07:07.474Z,99
2022-08-01T18:17:01.674Z,99
2022-08-01T18:27:01.505Z,99
2022-08-01T18:37:01.848Z,99
2022-08-01T18:47:01.670Z,99
2022-08-01T18:57:01.676Z,99
2022-08-01T19:07:15.148Z,99
2022-08-01T19:17:01.660Z,99
2022-08-01T19:27:05.288Z,99
2022-08-01T19:37:02.008Z,99
2022-08-01T19:47:04.983Z,99
2022-08-01T19:57:21.180Z,99
2022-08-01T20:08:06.044Z,99
2022-08-01T20:13:46.997Z,99
2022-08-01T20:17:01.830Z,99
2022-08-01T20:27:02.250Z,99
2022-08-01T20:37:02.194Z,99
2022-08-01T20:47:02.315Z,99
2022-08-01T20:57:02.542Z,99
2022-08-01T21:07:02.055Z,99
2022-08-01T21:17:01.995Z,99
2022-08-01T21:27:02.006Z,99
2022-08-01T21:37:02.249Z,99
2022-08-01T21:47:02.053Z,99
2022-08-01T21:57:02.436Z,99
2022-08-01T22:07:02.233Z,99
2022-08-01T22:17:02.424Z,99
2022-08-01T22:27:02.127Z,99
2022-08-01T22:37:02.176Z,99
2022-08-01T22:47:02.181Z,99
2022-08-01T22:57:02.198Z,99
2022-08-01T23:07:02.240Z,99
2022-08-01T23:17:30.067Z,99
2022-08-01T23:27:04.079Z,99
2022-08-01T23:37:02.298Z,99
2022-08-01T23:47:32.640Z,99
2022-08-01T23:57:04.386Z,99
